sensor_id;sensor_type;location;lat;lon;timestamp;temperature;humidity
45115;DHT22;30877;43.706;10.780;2023-11-19T00:00:35;10.70;96.70
45115;DHT22;30877;43.706;10.780;2023-11-19T00:03:04;10.70;96.70
45115;DHT22;30877;43.706;10.780;2023-11-19T00:05:34;10.70;96.70
45115;DHT22;30877;43.706;10.780;2023-11-19T00:08:03;10.60;96.70
45115;DHT22;30877;43.706;10.780;2023-11-19T00:10:31;10.60;96.70
45115;DHT22;30877;43.706;10.780;2023-11-19T00:13:00;10.60;96.70
45115;DHT22;30877;43.706;10.780;2023-11-19T00:15:30;10.60;96.70
45115;DHT22;30877;43.706;10.780;2023-11-19T00:17:58;10.70;96.70
45115;DHT22;30877;43.706;10.780;2023-11-19T00:20:28;10.60;96.70
45115;DHT22;30877;43.706;10.780;2023-11-19T00:22:57;10.50;96.70
45115;DHT22;30877;43.706;10.780;2023-11-19T00:25:26;10.50;96.70
45115;DHT22;30877;43.706;10.780;2023-11-19T00:27:54;10.40;96.70
45115;DHT22;30877;43.706;10.780;2023-11-19T00:30:24;10.40;96.70
45115;DHT22;30877;43.706;10.780;2023-11-19T00:32:55;10.40;96.70
45115;DHT22;30877;43.706;10.780;2023-11-19T00:35:23;10.40;96.70
45115;DHT22;30877;43.706;10.780;2023-11-19T00:37:52;10.50;96.70
45115;DHT22;30877;43.706;10.780;2023-11-19T00:40:22;10.50;96.70
45115;DHT22;30877;43.706;10.780;2023-11-19T00:42:52;10.40;96.70
45115;DHT22;30877;43.706;10.780;2023-11-19T00:45:20;10.40;96.70
45115;DHT22;30877;43.706;10.780;2023-11-19T00:47:49;10.50;96.70
45115;DHT22;30877;43.706;10.780;2023-11-19T00:50:19;10.50;96.70
45115;DHT22;30877;43.706;10.780;2023-11-19T00:52:48;10.50;96.70
45115;DHT22;30877;43.706;10.780;2023-11-19T00:55:18;10.50;96.70
45115;DHT22;30877;43.706;10.780;2023-11-19T00:57:46;10.50;96.70
45115;DHT22;30877;43.706;10.780;2023-11-19T01:00:15;10.60;96.70
45115;DHT22;30877;43.706;10.780;2023-11-19T01:02:48;10.60;96.70
45115;DHT22;30877;43.706;10.780;2023-11-19T01:05:21;10.50;96.70
45115;DHT22;30877;43.706;10.780;2023-11-19T01:07:51;10.50;96.70
45115;DHT22;30877;43.706;10.780;2023-11-19T01:10:23;10.50;96.70
45115;DHT22;30877;43.706;10.780;2023-11-19T01:12:52;10.40;96.70
45115;DHT22;30877;43.706;10.780;2023-11-19T01:15:22;10.50;96.70
45115;DHT22;30877;43.706;10.780;2023-11-19T01:17:51;10.40;96.70
45115;DHT22;30877;43.706;10.780;2023-11-19T01:20:22;10.40;96.70
45115;DHT22;30877;43.706;10.780;2023-11-19T01:22:51;10.40;96.70
45115;DHT22;30877;43.706;10.780;2023-11-19T01:25:20;10.40;96.70
45115;DHT22;30877;43.706;10.780;2023-11-19T01:27:49;10.40;96.70
45115;DHT22;30877;43.706;10.780;2023-11-19T01:30:18;10.40;96.70
45115;DHT22;30877;43.706;10.780;2023-11-19T01:32:49;10.50;96.70
45115;DHT22;30877;43.706;10.780;2023-11-19T01:35:19;10.50;96.70
45115;DHT22;30877;43.706;10.780;2023-11-19T01:37:49;10.50;96.70
45115;DHT22;30877;43.706;10.780;2023-11-19T01:40:21;10.50;96.70
45115;DHT22;30877;43.706;10.780;2023-11-19T01:42:49;10.50;96.70
45115;DHT22;30877;43.706;10.780;2023-11-19T01:45:26;10.50;96.70
45115;DHT22;30877;43.706;10.780;2023-11-19T01:47:56;10.50;96.70
45115;DHT22;30877;43.706;10.780;2023-11-19T01:50:25;10.60;96.70
45115;DHT22;30877;43.706;10.780;2023-11-19T01:52:57;10.60;96.70
45115;DHT22;30877;43.706;10.780;2023-11-19T01:55:27;10.60;96.70
45115;DHT22;30877;43.706;10.780;2023-11-19T01:58:00;10.50;96.70
45115;DHT22;30877;43.706;10.780;2023-11-19T02:00:31;10.50;96.70
45115;DHT22;30877;43.706;10.780;2023-11-19T02:03:02;10.50;96.70
45115;DHT22;30877;43.706;10.780;2023-11-19T02:05:32;10.50;96.70
45115;DHT22;30877;43.706;10.780;2023-11-19T02:08:03;10.50;96.70
45115;DHT22;30877;43.706;10.780;2023-11-19T02:10:32;10.40;96.70
45115;DHT22;30877;43.706;10.780;2023-11-19T02:13:01;10.50;96.70
45115;DHT22;30877;43.706;10.780;2023-11-19T02:15:34;10.50;96.70
45115;DHT22;30877;43.706;10.780;2023-11-19T02:18:18;10.40;96.70
45115;DHT22;30877;43.706;10.780;2023-11-19T02:20:48;10.40;96.70
45115;DHT22;30877;43.706;10.780;2023-11-19T02:23:20;10.40;96.70
45115;DHT22;30877;43.706;10.780;2023-11-19T02:26:01;10.30;96.70
45115;DHT22;30877;43.706;10.780;2023-11-19T02:28:32;10.40;96.70
45115;DHT22;30877;43.706;10.780;2023-11-19T02:31:01;10.40;96.70
45115;DHT22;30877;43.706;10.780;2023-11-19T02:33:31;10.40;96.70
45115;DHT22;30877;43.706;10.780;2023-11-19T02:35:59;10.30;96.70
45115;DHT22;30877;43.706;10.780;2023-11-19T02:38:28;10.30;96.70
45115;DHT22;30877;43.706;10.780;2023-11-19T02:40:56;10.40;96.70
45115;DHT22;30877;43.706;10.780;2023-11-19T02:43:25;10.30;96.70
45115;DHT22;30877;43.706;10.780;2023-11-19T02:45:55;10.20;96.70
45115;DHT22;30877;43.706;10.780;2023-11-19T02:48:23;10.20;96.70
45115;DHT22;30877;43.706;10.780;2023-11-19T02:50:53;10.20;96.70
45115;DHT22;30877;43.706;10.780;2023-11-19T02:53:21;10.10;96.70
45115;DHT22;30877;43.706;10.780;2023-11-19T02:55:50;10.20;96.70
45115;DHT22;30877;43.706;10.780;2023-11-19T02:58:19;10.10;96.70
45115;DHT22;30877;43.706;10.780;2023-11-19T03:00:48;10.10;96.70
45115;DHT22;30877;43.706;10.780;2023-11-19T03:03:24;10.10;96.70
45115;DHT22;30877;43.706;10.780;2023-11-19T03:05:57;10.20;96.70
45115;DHT22;30877;43.706;10.780;2023-11-19T03:08:25;10.20;96.70
45115;DHT22;30877;43.706;10.780;2023-11-19T03:10:54;10.20;96.70
45115;DHT22;30877;43.706;10.780;2023-11-19T03:13:22;10.20;96.70
45115;DHT22;30877;43.706;10.780;2023-11-19T03:15:51;10.10;96.70
45115;DHT22;30877;43.706;10.780;2023-11-19T03:18:19;10.10;96.70
45115;DHT22;30877;43.706;10.780;2023-11-19T03:20:50;10.10;96.70
45115;DHT22;30877;43.706;10.780;2023-11-19T03:23:20;10.00;96.70
45115;DHT22;30877;43.706;10.780;2023-11-19T03:25:49;9.90;96.70
45115;DHT22;30877;43.706;10.780;2023-11-19T03:28:17;9.90;96.70
45115;DHT22;30877;43.706;10.780;2023-11-19T03:30:46;9.90;96.70
45115;DHT22;30877;43.706;10.780;2023-11-19T03:33:14;9.90;96.70
45115;DHT22;30877;43.706;10.780;2023-11-19T03:35:43;9.90;96.70
45115;DHT22;30877;43.706;10.780;2023-11-19T03:38:13;9.80;96.70
45115;DHT22;30877;43.706;10.780;2023-11-19T03:40:42;9.80;96.70
45115;DHT22;30877;43.706;10.780;2023-11-19T03:43:12;9.80;96.70
45115;DHT22;30877;43.706;10.780;2023-11-19T03:45:41;9.80;96.70
45115;DHT22;30877;43.706;10.780;2023-11-19T03:48:09;9.80;96.70
45115;DHT22;30877;43.706;10.780;2023-11-19T03:50:38;9.80;96.70
45115;DHT22;30877;43.706;10.780;2023-11-19T03:53:07;9.80;96.70
45115;DHT22;30877;43.706;10.780;2023-11-19T03:55:37;9.80;96.70
45115;DHT22;30877;43.706;10.780;2023-11-19T03:58:05;9.80;96.70
45115;DHT22;30877;43.706;10.780;2023-11-19T04:00:34;9.90;96.70
45115;DHT22;30877;43.706;10.780;2023-11-19T04:03:02;9.90;96.70
45115;DHT22;30877;43.706;10.780;2023-11-19T04:05:31;9.80;96.70
45115;DHT22;30877;43.706;10.780;2023-11-19T04:07:59;9.70;96.70
45115;DHT22;30877;43.706;10.780;2023-11-19T04:10:28;9.80;96.70
45115;DHT22;30877;43.706;10.780;2023-11-19T04:12:59;9.80;96.70
45115;DHT22;30877;43.706;10.780;2023-11-19T04:15:27;9.80;96.70
45115;DHT22;30877;43.706;10.780;2023-11-19T04:17:55;9.80;96.70
45115;DHT22;30877;43.706;10.780;2023-11-19T04:20:24;9.90;96.70
45115;DHT22;30877;43.706;10.780;2023-11-19T04:22:55;9.80;96.70
45115;DHT22;30877;43.706;10.780;2023-11-19T04:25:24;9.80;96.70
45115;DHT22;30877;43.706;10.780;2023-11-19T04:27:54;9.80;96.70
45115;DHT22;30877;43.706;10.780;2023-11-19T04:30:24;9.70;96.70
45115;DHT22;30877;43.706;10.780;2023-11-19T04:32:52;9.70;96.70
45115;DHT22;30877;43.706;10.780;2023-11-19T04:35:21;9.80;96.70
45115;DHT22;30877;43.706;10.780;2023-11-19T04:37:49;9.80;96.70
45115;DHT22;30877;43.706;10.780;2023-11-19T04:40:18;9.80;96.70
45115;DHT22;30877;43.706;10.780;2023-11-19T04:42:46;9.70;96.70
45115;DHT22;30877;43.706;10.780;2023-11-19T04:45:14;9.70;96.70
45115;DHT22;30877;43.706;10.780;2023-11-19T04:47:45;9.70;96.70
45115;DHT22;30877;43.706;10.780;2023-11-19T04:50:13;9.70;96.70
45115;DHT22;30877;43.706;10.780;2023-11-19T04:52:43;9.70;96.70
45115;DHT22;30877;43.706;10.780;2023-11-19T04:55:14;9.60;96.70
45115;DHT22;30877;43.706;10.780;2023-11-19T04:57:42;9.60;96.70
45115;DHT22;30877;43.706;10.780;2023-11-19T05:00:12;9.70;96.70
45115;DHT22;30877;43.706;10.780;2023-11-19T05:02:46;9.70;96.70
45115;DHT22;30877;43.706;10.780;2023-11-19T05:05:16;9.70;96.70
45115;DHT22;30877;43.706;10.780;2023-11-19T05:07:45;9.70;96.70
45115;DHT22;30877;43.706;10.780;2023-11-19T05:10:14;9.70;96.70
45115;DHT22;30877;43.706;10.780;2023-11-19T05:12:47;9.70;96.70
45115;DHT22;30877;43.706;10.780;2023-11-19T05:15:15;9.70;96.70
45115;DHT22;30877;43.706;10.780;2023-11-19T05:17:45;9.60;96.70
45115;DHT22;30877;43.706;10.780;2023-11-19T05:20:13;9.60;96.70
45115;DHT22;30877;43.706;10.780;2023-11-19T05:22:42;9.60;96.70
45115;DHT22;30877;43.706;10.780;2023-11-19T05:25:11;9.50;96.70
45115;DHT22;30877;43.706;10.780;2023-11-19T05:27:39;9.50;96.70
45115;DHT22;30877;43.706;10.780;2023-11-19T05:30:08;9.50;96.70
45115;DHT22;30877;43.706;10.780;2023-11-19T05:32:39;9.50;96.70
45115;DHT22;30877;43.706;10.780;2023-11-19T05:35:09;9.60;96.70
45115;DHT22;30877;43.706;10.780;2023-11-19T05:37:37;9.60;96.70
45115;DHT22;30877;43.706;10.780;2023-11-19T05:40:07;9.60;96.70
45115;DHT22;30877;43.706;10.780;2023-11-19T05:42:43;9.60;96.70
45115;DHT22;30877;43.706;10.780;2023-11-19T05:45:12;9.50;96.70
45115;DHT22;30877;43.706;10.780;2023-11-19T05:47:40;9.50;96.70
45115;DHT22;30877;43.706;10.780;2023-11-19T05:50:11;9.50;96.70
45115;DHT22;30877;43.706;10.780;2023-11-19T05:52:39;9.50;96.70
45115;DHT22;30877;43.706;10.780;2023-11-19T05:55:08;9.60;96.70
45115;DHT22;30877;43.706;10.780;2023-11-19T05:57:39;9.50;96.70
45115;DHT22;30877;43.706;10.780;2023-11-19T06:00:12;9.50;96.70
45115;DHT22;30877;43.706;10.780;2023-11-19T06:02:43;9.60;96.70
45115;DHT22;30877;43.706;10.780;2023-11-19T06:05:14;9.60;96.70
45115;DHT22;30877;43.706;10.780;2023-11-19T06:07:42;9.60;96.70
45115;DHT22;30877;43.706;10.780;2023-11-19T06:10:11;9.60;96.70
45115;DHT22;30877;43.706;10.780;2023-11-19T06:12:42;9.60;96.70
45115;DHT22;30877;43.706;10.780;2023-11-19T06:15:11;9.60;96.70
45115;DHT22;30877;43.706;10.780;2023-11-19T06:17:40;9.70;96.70
45115;DHT22;30877;43.706;10.780;2023-11-19T06:20:09;9.60;96.70
45115;DHT22;30877;43.706;10.780;2023-11-19T06:22:41;9.60;96.70
45115;DHT22;30877;43.706;10.780;2023-11-19T06:25:12;9.60;96.70
45115;DHT22;30877;43.706;10.780;2023-11-19T06:27:42;9.50;96.70
45115;DHT22;30877;43.706;10.780;2023-11-19T06:30:12;9.60;96.70
45115;DHT22;30877;43.706;10.780;2023-11-19T06:32:40;9.70;96.70
45115;DHT22;30877;43.706;10.780;2023-11-19T06:35:09;9.70;96.70
45115;DHT22;30877;43.706;10.780;2023-11-19T06:37:41;9.80;96.70
45115;DHT22;30877;43.706;10.780;2023-11-19T06:40:10;9.80;96.70
45115;DHT22;30877;43.706;10.780;2023-11-19T06:42:40;9.80;96.70
45115;DHT22;30877;43.706;10.780;2023-11-19T06:45:09;9.90;96.70
45115;DHT22;30877;43.706;10.780;2023-11-19T06:47:38;9.90;96.70
45115;DHT22;30877;43.706;10.780;2023-11-19T06:50:07;9.90;96.70
45115;DHT22;30877;43.706;10.780;2023-11-19T06:52:37;9.90;96.70
45115;DHT22;30877;43.706;10.780;2023-11-19T06:55:08;9.80;96.70
45115;DHT22;30877;43.706;10.780;2023-11-19T06:57:37;9.90;96.70
45115;DHT22;30877;43.706;10.780;2023-11-19T07:00:06;10.00;96.70
45115;DHT22;30877;43.706;10.780;2023-11-19T07:02:35;10.10;96.70
45115;DHT22;30877;43.706;10.780;2023-11-19T07:05:04;10.10;96.70
45115;DHT22;30877;43.706;10.780;2023-11-19T07:07:33;10.10;96.70
45115;DHT22;30877;43.706;10.780;2023-11-19T07:10:02;10.10;96.70
45115;DHT22;30877;43.706;10.780;2023-11-19T07:12:33;10.00;96.70
45115;DHT22;30877;43.706;10.780;2023-11-19T07:15:04;10.00;96.70
45115;DHT22;30877;43.706;10.780;2023-11-19T07:17:38;9.90;96.70
45115;DHT22;30877;43.706;10.780;2023-11-19T07:20:09;10.00;96.70
45115;DHT22;30877;43.706;10.780;2023-11-19T07:22:44;10.00;96.70
45115;DHT22;30877;43.706;10.780;2023-11-19T07:25:15;10.10;96.70
45115;DHT22;30877;43.706;10.780;2023-11-19T07:27:45;10.10;96.70
45115;DHT22;30877;43.706;10.780;2023-11-19T07:30:16;10.20;96.70
45115;DHT22;30877;43.706;10.780;2023-11-19T07:32:44;10.20;96.70
45115;DHT22;30877;43.706;10.780;2023-11-19T07:35:13;10.10;96.70
45115;DHT22;30877;43.706;10.780;2023-11-19T07:37:41;10.10;96.70
45115;DHT22;30877;43.706;10.780;2023-11-19T07:40:11;10.20;96.70
45115;DHT22;30877;43.706;10.780;2023-11-19T07:42:40;10.10;96.70
45115;DHT22;30877;43.706;10.780;2023-11-19T07:45:10;10.10;96.70
45115;DHT22;30877;43.706;10.780;2023-11-19T07:47:39;10.10;96.70
45115;DHT22;30877;43.706;10.780;2023-11-19T07:50:09;10.20;96.70
45115;DHT22;30877;43.706;10.780;2023-11-19T07:52:38;10.20;96.70
45115;DHT22;30877;43.706;10.780;2023-11-19T07:55:07;10.20;96.70
45115;DHT22;30877;43.706;10.780;2023-11-19T07:57:35;10.20;96.70
45115;DHT22;30877;43.706;10.780;2023-11-19T08:00:05;10.20;96.70
45115;DHT22;30877;43.706;10.780;2023-11-19T08:02:45;10.20;96.70
45115;DHT22;30877;43.706;10.780;2023-11-19T08:05:14;10.10;96.70
45115;DHT22;30877;43.706;10.780;2023-11-19T08:07:45;10.10;96.70
45115;DHT22;30877;43.706;10.780;2023-11-19T08:10:13;10.20;96.70
45115;DHT22;30877;43.706;10.780;2023-11-19T08:12:42;10.20;96.70
45115;DHT22;30877;43.706;10.780;2023-11-19T08:15:11;10.30;96.70
45115;DHT22;30877;43.706;10.780;2023-11-19T08:17:39;10.40;96.70
45115;DHT22;30877;43.706;10.780;2023-11-19T08:20:10;10.40;96.70
45115;DHT22;30877;43.706;10.780;2023-11-19T08:22:39;10.40;96.70
45115;DHT22;30877;43.706;10.780;2023-11-19T08:25:08;10.40;96.70
45115;DHT22;30877;43.706;10.780;2023-11-19T08:27:36;10.50;96.70
45115;DHT22;30877;43.706;10.780;2023-11-19T08:30:06;10.50;96.70
45115;DHT22;30877;43.706;10.780;2023-11-19T08:32:35;10.60;96.70
45115;DHT22;30877;43.706;10.780;2023-11-19T08:35:04;10.60;96.70
45115;DHT22;30877;43.706;10.780;2023-11-19T08:37:35;10.60;96.70
45115;DHT22;30877;43.706;10.780;2023-11-19T08:40:06;10.60;96.70
45115;DHT22;30877;43.706;10.780;2023-11-19T08:42:35;10.70;96.70
45115;DHT22;30877;43.706;10.780;2023-11-19T08:45:05;10.70;96.70
45115;DHT22;30877;43.706;10.780;2023-11-19T08:47:33;10.70;96.70
45115;DHT22;30877;43.706;10.780;2023-11-19T08:50:02;10.70;96.70
45115;DHT22;30877;43.706;10.780;2023-11-19T08:52:32;10.80;96.70
45115;DHT22;30877;43.706;10.780;2023-11-19T08:55:05;10.80;96.70
45115;DHT22;30877;43.706;10.780;2023-11-19T08:57:33;10.90;96.70
45115;DHT22;30877;43.706;10.780;2023-11-19T09:00:01;11.00;96.70
45115;DHT22;30877;43.706;10.780;2023-11-19T09:02:35;11.00;96.70
45115;DHT22;30877;43.706;10.780;2023-11-19T09:05:06;10.90;96.70
45115;DHT22;30877;43.706;10.780;2023-11-19T09:07:37;11.00;96.70
45115;DHT22;30877;43.706;10.780;2023-11-19T09:10:08;11.10;96.70
45115;DHT22;30877;43.706;10.780;2023-11-19T09:12:36;11.10;96.70
45115;DHT22;30877;43.706;10.780;2023-11-19T09:15:06;11.20;96.70
45115;DHT22;30877;43.706;10.780;2023-11-19T09:17:35;11.20;96.70
45115;DHT22;30877;43.706;10.780;2023-11-19T09:20:05;11.30;96.70
45115;DHT22;30877;43.706;10.780;2023-11-19T09:22:34;11.30;96.70
45115;DHT22;30877;43.706;10.780;2023-11-19T09:25:02;11.30;96.70
45115;DHT22;30877;43.706;10.780;2023-11-19T09:27:32;11.30;96.70
45115;DHT22;30877;43.706;10.780;2023-11-19T09:30:00;11.30;96.70
45115;DHT22;30877;43.706;10.780;2023-11-19T09:32:29;11.40;96.70
45115;DHT22;30877;43.706;10.780;2023-11-19T09:34:57;11.40;96.70
45115;DHT22;30877;43.706;10.780;2023-11-19T09:37:26;11.50;96.70
45115;DHT22;30877;43.706;10.780;2023-11-19T09:39:54;11.50;96.70
45115;DHT22;30877;43.706;10.780;2023-11-19T09:42:24;11.50;96.70
45115;DHT22;30877;43.706;10.780;2023-11-19T09:44:55;11.50;96.70
45115;DHT22;30877;43.706;10.780;2023-11-19T09:47:25;11.50;96.70
45115;DHT22;30877;43.706;10.780;2023-11-19T09:49:55;11.50;96.70
45115;DHT22;30877;43.706;10.780;2023-11-19T09:52:26;11.50;96.70
45115;DHT22;30877;43.706;10.780;2023-11-19T09:54:54;11.40;96.70
45115;DHT22;30877;43.706;10.780;2023-11-19T09:57:23;11.50;96.70
45115;DHT22;30877;43.706;10.780;2023-11-19T09:59:53;11.50;96.70
45115;DHT22;30877;43.706;10.780;2023-11-19T10:02:23;11.50;96.70
45115;DHT22;30877;43.706;10.780;2023-11-19T10:04:53;11.50;96.70
45115;DHT22;30877;43.706;10.780;2023-11-19T10:07:22;11.50;96.70
45115;DHT22;30877;43.706;10.780;2023-11-19T10:09:54;11.50;96.70
45115;DHT22;30877;43.706;10.780;2023-11-19T10:12:22;11.60;96.70
45115;DHT22;30877;43.706;10.780;2023-11-19T10:14:52;11.70;96.70
45115;DHT22;30877;43.706;10.780;2023-11-19T10:17:21;11.70;96.70
45115;DHT22;30877;43.706;10.780;2023-11-19T10:19:51;11.70;96.70
45115;DHT22;30877;43.706;10.780;2023-11-19T10:22:19;11.70;96.70
45115;DHT22;30877;43.706;10.780;2023-11-19T10:24:48;11.70;96.70
45115;DHT22;30877;43.706;10.780;2023-11-19T10:27:24;11.80;96.70
45115;DHT22;30877;43.706;10.780;2023-11-19T10:29:59;11.90;96.70
45115;DHT22;30877;43.706;10.780;2023-11-19T10:32:28;11.90;96.70
45115;DHT22;30877;43.706;10.780;2023-11-19T10:35:06;11.90;96.70
45115;DHT22;30877;43.706;10.780;2023-11-19T10:37:35;11.90;96.70
45115;DHT22;30877;43.706;10.780;2023-11-19T10:40:06;11.90;96.70
45115;DHT22;30877;43.706;10.780;2023-11-19T10:42:38;12.00;96.70
45115;DHT22;30877;43.706;10.780;2023-11-19T10:45:22;12.00;96.70
45115;DHT22;30877;43.706;10.780;2023-11-19T10:47:52;12.00;96.70
45115;DHT22;30877;43.706;10.780;2023-11-19T10:50:24;12.00;96.70
45115;DHT22;30877;43.706;10.780;2023-11-19T10:52:56;12.20;96.70
45115;DHT22;30877;43.706;10.780;2023-11-19T10:55:29;12.40;96.70
45115;DHT22;30877;43.706;10.780;2023-11-19T10:58:00;12.40;96.70
45115;DHT22;30877;43.706;10.780;2023-11-19T11:00:34;12.40;96.70
45115;DHT22;30877;43.706;10.780;2023-11-19T11:03:10;12.30;96.70
45115;DHT22;30877;43.706;10.780;2023-11-19T11:05:41;12.30;96.70
45115;DHT22;30877;43.706;10.780;2023-11-19T11:08:11;12.20;96.70
45115;DHT22;30877;43.706;10.780;2023-11-19T11:10:42;12.30;96.70
45115;DHT22;30877;43.706;10.780;2023-11-19T11:13:14;12.30;96.70
45115;DHT22;30877;43.706;10.780;2023-11-19T11:15:46;12.30;96.70
45115;DHT22;30877;43.706;10.780;2023-11-19T11:18:17;12.40;96.70
45115;DHT22;30877;43.706;10.780;2023-11-19T11:20:50;12.30;96.70
45115;DHT22;30877;43.706;10.780;2023-11-19T11:23:37;12.30;96.70
45115;DHT22;30877;43.706;10.780;2023-11-19T11:26:25;12.30;96.70
45115;DHT22;30877;43.706;10.780;2023-11-19T11:28:58;12.30;96.70
45115;DHT22;30877;43.706;10.780;2023-11-19T11:31:37;12.20;96.70
45115;DHT22;30877;43.706;10.780;2023-11-19T11:34:37;12.20;96.70
45115;DHT22;30877;43.706;10.780;2023-11-19T11:37:15;12.20;96.70
45115;DHT22;30877;43.706;10.780;2023-11-19T11:39:46;12.20;96.70
45115;DHT22;30877;43.706;10.780;2023-11-19T11:42:40;12.20;96.70
45115;DHT22;30877;43.706;10.780;2023-11-19T11:45:10;12.10;96.70
45115;DHT22;30877;43.706;10.780;2023-11-19T11:48:09;12.20;96.70
45115;DHT22;30877;43.706;10.780;2023-11-19T11:50:49;12.20;96.70
45115;DHT22;30877;43.706;10.780;2023-11-19T11:53:19;12.30;96.70
45115;DHT22;30877;43.706;10.780;2023-11-19T11:55:55;12.30;96.70
45115;DHT22;30877;43.706;10.780;2023-11-19T11:58:27;12.30;96.70
45115;DHT22;30877;43.706;10.780;2023-11-19T12:01:00;12.40;96.70
45115;DHT22;30877;43.706;10.780;2023-11-19T12:03:32;12.40;96.70
45115;DHT22;30877;43.706;10.780;2023-11-19T12:06:01;12.50;96.70
45115;DHT22;30877;43.706;10.780;2023-11-19T12:08:30;12.50;96.70
45115;DHT22;30877;43.706;10.780;2023-11-19T12:10:58;12.50;96.70
45115;DHT22;30877;43.706;10.780;2023-11-19T12:13:47;12.60;96.70
45115;DHT22;30877;43.706;10.780;2023-11-19T12:16:17;12.60;96.70
45115;DHT22;30877;43.706;10.780;2023-11-19T12:18:47;12.70;96.70
45115;DHT22;30877;43.706;10.780;2023-11-19T12:21:28;12.70;96.70
45115;DHT22;30877;43.706;10.780;2023-11-19T12:23:58;12.70;96.70
45115;DHT22;30877;43.706;10.780;2023-11-19T12:26:37;12.70;96.70
45115;DHT22;30877;43.706;10.780;2023-11-19T12:29:06;12.70;96.70
45115;DHT22;30877;43.706;10.780;2023-11-19T12:31:36;12.70;96.70
45115;DHT22;30877;43.706;10.780;2023-11-19T12:34:08;12.70;96.70
45115;DHT22;30877;43.706;10.780;2023-11-19T12:36:41;12.70;96.70
45115;DHT22;30877;43.706;10.780;2023-11-19T12:39:10;12.70;96.70
45115;DHT22;30877;43.706;10.780;2023-11-19T12:41:51;12.70;96.70
45115;DHT22;30877;43.706;10.780;2023-11-19T12:44:21;12.70;96.70
45115;DHT22;30877;43.706;10.780;2023-11-19T12:47:00;12.80;96.70
45115;DHT22;30877;43.706;10.780;2023-11-19T12:49:31;12.80;96.70
45115;DHT22;30877;43.706;10.780;2023-11-19T12:51:59;12.80;96.70
45115;DHT22;30877;43.706;10.780;2023-11-19T12:54:35;12.80;96.70
45115;DHT22;30877;43.706;10.780;2023-11-19T12:57:05;12.80;96.70
45115;DHT22;30877;43.706;10.780;2023-11-19T12:59:33;12.80;96.70
45115;DHT22;30877;43.706;10.780;2023-11-19T13:02:02;12.70;96.70
45115;DHT22;30877;43.706;10.780;2023-11-19T13:04:35;12.70;96.70
45115;DHT22;30877;43.706;10.780;2023-11-19T13:07:04;12.70;96.70
45115;DHT22;30877;43.706;10.780;2023-11-19T13:09:34;12.70;96.70
45115;DHT22;30877;43.706;10.780;2023-11-19T13:12:13;12.70;96.70
45115;DHT22;30877;43.706;10.780;2023-11-19T13:14:42;12.70;96.70
45115;DHT22;30877;43.706;10.780;2023-11-19T13:17:15;12.70;96.70
45115;DHT22;30877;43.706;10.780;2023-11-19T13:19:47;12.70;96.70
45115;DHT22;30877;43.706;10.780;2023-11-19T13:22:16;12.70;96.70
45115;DHT22;30877;43.706;10.780;2023-11-19T13:24:44;12.70;96.70
45115;DHT22;30877;43.706;10.780;2023-11-19T13:27:14;12.70;96.70
45115;DHT22;30877;43.706;10.780;2023-11-19T13:29:42;12.70;96.70
45115;DHT22;30877;43.706;10.780;2023-11-19T13:32:10;12.70;96.70
45115;DHT22;30877;43.706;10.780;2023-11-19T13:34:39;12.70;96.70
45115;DHT22;30877;43.706;10.780;2023-11-19T13:37:09;12.70;96.70
45115;DHT22;30877;43.706;10.780;2023-11-19T13:39:42;12.70;96.70
45115;DHT22;30877;43.706;10.780;2023-11-19T13:42:10;12.70;96.70
45115;DHT22;30877;43.706;10.780;2023-11-19T13:44:41;12.70;96.70
45115;DHT22;30877;43.706;10.780;2023-11-19T13:47:09;12.70;96.70
45115;DHT22;30877;43.706;10.780;2023-11-19T13:49:39;12.60;96.70
45115;DHT22;30877;43.706;10.780;2023-11-19T13:52:09;12.60;96.70
45115;DHT22;30877;43.706;10.780;2023-11-19T13:54:38;12.70;96.70
45115;DHT22;30877;43.706;10.780;2023-11-19T13:57:06;12.70;96.70
45115;DHT22;30877;43.706;10.780;2023-11-19T13:59:39;12.70;96.70
45115;DHT22;30877;43.706;10.780;2023-11-19T14:02:08;12.70;96.70
45115;DHT22;30877;43.706;10.780;2023-11-19T14:04:37;12.70;96.70
45115;DHT22;30877;43.706;10.780;2023-11-19T14:07:06;12.70;96.70
45115;DHT22;30877;43.706;10.780;2023-11-19T14:09:36;12.70;96.70
45115;DHT22;30877;43.706;10.780;2023-11-19T14:12:05;12.70;96.70
45115;DHT22;30877;43.706;10.780;2023-11-19T14:14:33;12.70;96.70
45115;DHT22;30877;43.706;10.780;2023-11-19T14:17:02;12.70;96.70
45115;DHT22;30877;43.706;10.780;2023-11-19T14:19:34;12.70;96.70
45115;DHT22;30877;43.706;10.780;2023-11-19T14:22:02;12.70;96.70
45115;DHT22;30877;43.706;10.780;2023-11-19T14:24:32;12.70;96.70
45115;DHT22;30877;43.706;10.780;2023-11-19T14:27:04;12.80;96.70
45115;DHT22;30877;43.706;10.780;2023-11-19T14:29:33;12.80;96.70
45115;DHT22;30877;43.706;10.780;2023-11-19T14:32:04;12.80;96.70
45115;DHT22;30877;43.706;10.780;2023-11-19T14:34:32;12.80;96.70
45115;DHT22;30877;43.706;10.780;2023-11-19T14:37:00;12.70;96.70
45115;DHT22;30877;43.706;10.780;2023-11-19T14:39:29;12.80;96.70
45115;DHT22;30877;43.706;10.780;2023-11-19T14:42:00;12.80;96.70
45115;DHT22;30877;43.706;10.780;2023-11-19T14:44:34;12.80;96.70
45115;DHT22;30877;43.706;10.780;2023-11-19T14:47:02;12.80;96.70
45115;DHT22;30877;43.706;10.780;2023-11-19T14:49:31;12.80;96.70
45115;DHT22;30877;43.706;10.780;2023-11-19T14:52:00;12.80;96.70
45115;DHT22;30877;43.706;10.780;2023-11-19T14:54:31;12.80;96.70
45115;DHT22;30877;43.706;10.780;2023-11-19T14:57:02;12.80;96.70
45115;DHT22;30877;43.706;10.780;2023-11-19T14:59:31;12.80;96.70
45115;DHT22;30877;43.706;10.780;2023-11-19T15:02:02;12.80;96.70
45115;DHT22;30877;43.706;10.780;2023-11-19T15:04:31;12.80;96.70
45115;DHT22;30877;43.706;10.780;2023-11-19T15:07:00;12.80;96.70
45115;DHT22;30877;43.706;10.780;2023-11-19T15:09:29;12.80;96.70
45115;DHT22;30877;43.706;10.780;2023-11-19T15:12:02;12.80;96.70
45115;DHT22;30877;43.706;10.780;2023-11-19T15:14:31;12.80;96.70
45115;DHT22;30877;43.706;10.780;2023-11-19T15:17:26;12.80;96.70
45115;DHT22;30877;43.706;10.780;2023-11-19T15:19:55;12.80;96.70
45115;DHT22;30877;43.706;10.780;2023-11-19T15:22:23;12.80;96.70
45115;DHT22;30877;43.706;10.780;2023-11-19T15:25:01;12.80;96.70
45115;DHT22;30877;43.706;10.780;2023-11-19T15:27:31;12.80;96.70
45115;DHT22;30877;43.706;10.780;2023-11-19T15:29:59;12.70;96.70
45115;DHT22;30877;43.706;10.780;2023-11-19T15:32:29;12.70;96.70
45115;DHT22;30877;43.706;10.780;2023-11-19T15:34:59;12.70;96.70
45115;DHT22;30877;43.706;10.780;2023-11-19T15:37:28;12.70;96.70
45115;DHT22;30877;43.706;10.780;2023-11-19T15:39:57;12.80;96.70